createdAt,value
2019-04-29T00:01:55.861Z,69.28
2019-04-29T00:04:25.528Z,69.35
2019-04-29T00:06:54.904Z,69.81
2019-04-29T00:09:24.512Z,69.85
2019-04-29T00:11:53.890Z,69.82
2019-04-29T00:14:23.188Z,69.74
2019-04-29T00:16:56.814Z,70.19
2019-04-29T00:19:43.856Z,70.03
2019-04-29T00:22:13.342Z,70.07
2019-04-29T00:24:42.780Z,70.19
2019-04-29T00:27:12.432Z,70.00
2019-04-29T00:29:41.788Z,69.94
2019-04-29T00:32:11.420Z,70.19
2019-04-29T00:34:40.790Z,70.10
2019-04-29T00:37:14.986Z,69.95
2019-04-29T00:40:00.842Z,70.14
2019-04-29T00:42:48.271Z,69.91
2019-04-29T00:45:17.701Z,69.83
2019-04-29T00:47:47.092Z,69.84
2019-04-29T00:50:16.572Z,69.92
2019-04-29T00:52:45.947Z,70.05
2019-04-29T00:55:22.695Z,70.46
2019-04-29T00:57:52.107Z,70.59
2019-04-29T01:00:23.522Z,70.18
2019-04-29T01:02:52.901Z,69.96
2019-04-29T01:05:22.361Z,70.51
2019-04-29T01:07:52.134Z,70.60
2019-04-29T01:10:21.702Z,70.73
2019-04-29T01:12:51.112Z,71.03
2019-04-29T01:15:20.488Z,71.18
2019-04-29T01:17:49.924Z,71.06
2019-04-29T01:20:19.531Z,71.34
2019-04-29T01:22:48.872Z,71.98
2019-04-29T01:25:18.253Z,72.37
2019-04-29T01:28:05.879Z,72.38
2019-04-29T01:30:41.156Z,72.65
2019-04-29T01:33:10.563Z,72.89
2019-04-29T01:35:40.003Z,72.87
2019-04-29T01:38:09.299Z,72.61
2019-04-29T01:40:42.995Z,72.25
2019-04-29T01:43:12.360Z,72.55
2019-04-29T01:45:41.659Z,72.83
2019-04-29T01:48:10.981Z,73.11
2019-04-29T01:50:40.377Z,72.98
2019-04-29T01:53:09.751Z,73.54
2019-04-29T01:55:39.144Z,72.97
2019-04-29T01:58:08.432Z,73.40
2019-04-29T02:00:37.759Z,73.58
2019-04-29T02:03:07.262Z,74.08
2019-04-29T02:05:36.566Z,74.34
2019-04-29T02:08:05.951Z,74.53
2019-04-29T02:10:35.436Z,74.66
2019-04-29T02:13:04.906Z,74.43
2019-04-29T02:15:34.309Z,75.02
2019-04-29T02:18:03.703Z,75.03
2019-04-29T02:20:33.068Z,75.12
2019-04-29T02:23:03.970Z,75.10
2019-04-29T02:25:35.000Z,74.99
2019-04-29T02:28:04.369Z,75.07
2019-04-29T02:30:46.021Z,74.73
2019-04-29T02:33:15.398Z,75.00
2019-04-29T02:35:44.954Z,74.60
2019-04-29T02:38:18.905Z,74.92
2019-04-29T02:40:55.770Z,74.73
2019-04-29T02:43:26.890Z,74.73
2019-04-29T02:45:56.255Z,75.07
2019-04-29T02:48:30.060Z,75.09
2019-04-29T02:50:56.726Z,75.68
2019-04-29T02:53:26.107Z,75.90
2019-04-29T02:55:57.124Z,75.86
2019-04-29T02:58:34.710Z,75.55
2019-04-29T03:01:21.876Z,75.63
2019-04-29T03:04:05.077Z,75.98
2019-04-29T03:06:34.576Z,76.10
2019-04-29T03:09:05.598Z,75.66
2019-04-29T03:11:34.999Z,76.10
2019-04-29T03:14:04.376Z,76.12
2019-04-29T03:16:33.846Z,76.45
2019-04-29T03:19:07.556Z,76.49
2019-04-29T03:21:38.753Z,76.50
2019-04-29T03:24:08.112Z,76.71
2019-04-29T03:26:37.613Z,76.38
2019-04-29T03:29:08.618Z,76.31
2019-04-29T03:31:39.448Z,76.40
2019-04-29T03:34:09.215Z,76.29
2019-04-29T03:36:38.594Z,75.97
2019-04-29T03:39:08.167Z,76.15
2019-04-29T03:41:37.601Z,76.32
2019-04-29T03:44:06.971Z,76.80
2019-04-29T03:46:36.345Z,76.77
2019-04-29T03:49:05.749Z,76.64
2019-04-29T03:51:35.510Z,76.84
2019-04-29T03:54:04.885Z,77.04
2019-04-29T03:56:34.218Z,77.13
2019-04-29T03:59:03.784Z,76.94
2019-04-29T04:01:34.830Z,76.46
2019-04-29T04:04:08.473Z,76.94
2019-04-29T04:06:42.357Z,76.72
2019-04-29T04:09:15.986Z,76.55
2019-04-29T04:11:45.339Z,76.39
2019-04-29T04:14:14.766Z,76.12
2019-04-29T04:17:02.067Z,76.18
2019-04-29T04:19:33.666Z,75.24
2019-04-29T04:22:03.028Z,75.17
2019-04-29T04:24:32.696Z,75.08
2019-04-29T04:27:02.105Z,74.79
2019-04-29T04:29:31.487Z,74.37
2019-04-29T04:32:00.846Z,73.95
2019-04-29T04:34:30.191Z,73.58
2019-04-29T04:37:00.300Z,73.32
2019-04-29T04:39:31.815Z,73.03
2019-04-29T04:42:01.169Z,72.75
2019-04-29T04:44:49.063Z,72.86
2019-04-29T04:47:19.612Z,72.72
2019-04-29T04:49:49.095Z,72.83
2019-04-29T04:52:18.543Z,72.33
2019-04-29T04:54:49.536Z,71.72
2019-04-29T04:57:18.812Z,71.41
2019-04-29T04:59:48.051Z,71.30
2019-04-29T05:02:17.450Z,71.25
2019-04-29T05:04:46.776Z,71.50
2019-04-29T05:07:16.070Z,71.62
2019-04-29T05:09:45.542Z,72.29
2019-04-29T05:12:14.895Z,72.42
2019-04-29T05:14:44.267Z,72.20
2019-04-29T05:17:13.677Z,71.41
2019-04-29T05:19:42.918Z,70.56
2019-04-29T05:22:12.249Z,69.99
2019-04-29T05:24:41.581Z,70.12
2019-04-29T05:27:10.955Z,69.99
2019-04-29T05:29:40.250Z,69.75
2019-04-29T05:32:09.590Z,69.93
2019-04-29T05:34:41.920Z,69.41
2019-04-29T05:37:25.249Z,67.85
2019-04-29T05:39:54.621Z,67.50
2019-04-29T05:42:23.849Z,67.56
2019-04-29T05:44:54.901Z,67.87
2019-04-29T05:47:25.895Z,67.53
2019-04-29T05:50:16.724Z,66.93
2019-04-29T05:52:59.818Z,67.22
2019-04-29T05:55:29.321Z,66.95
2019-04-29T05:58:13.618Z,66.27
2019-04-29T06:00:45.465Z,65.23
2019-04-29T06:03:14.788Z,64.44
2019-04-29T06:05:44.165Z,64.15
2019-04-29T06:08:13.582Z,64.00
2019-04-29T06:10:42.943Z,62.28
2019-04-29T06:13:12.387Z,61.74
2019-04-29T06:15:41.806Z,62.57
2019-04-29T06:18:11.100Z,62.44
2019-04-29T06:20:40.485Z,62.37
2019-04-29T06:23:09.992Z,62.02
2019-04-29T06:25:39.348Z,62.05
2019-04-29T06:28:08.728Z,61.62
2019-04-29T06:30:40.602Z,60.20
2019-04-29T06:33:09.587Z,60.40
2019-04-29T06:35:39.178Z,58.92
2019-04-29T06:38:08.767Z,57.91
2019-04-29T06:40:38.218Z,57.71
2019-04-29T06:43:07.511Z,57.21
2019-04-29T06:45:36.919Z,56.86
2019-04-29T06:48:06.219Z,57.68
2019-04-29T06:50:35.522Z,56.34
2019-04-29T06:53:05.741Z,55.81
2019-04-29T06:55:35.044Z,55.22
2019-04-29T06:58:04.417Z,55.58
2019-04-29T07:00:33.838Z,54.43
2019-04-29T07:03:03.205Z,54.44
2019-04-29T07:05:32.447Z,53.42
2019-04-29T07:08:01.841Z,52.78
2019-04-29T07:10:31.098Z,54.31
2019-04-29T07:13:00.547Z,53.88
2019-04-29T07:15:29.960Z,52.52
2019-04-29T07:17:59.190Z,53.12
2019-04-29T07:20:32.480Z,53.07
2019-04-29T07:23:00.688Z,52.61
2019-04-29T07:25:32.604Z,52.78
2019-04-29T07:28:01.979Z,52.23
2019-04-29T07:30:31.391Z,50.83
2019-04-29T07:33:00.674Z,51.77
2019-04-29T07:35:30.075Z,51.14
2019-04-29T07:37:59.420Z,52.01
2019-04-29T07:40:28.793Z,53.47
2019-04-29T07:42:58.217Z,55.52
2019-04-29T07:45:44.352Z,55.59
2019-04-29T07:48:08.985Z,55.79
2019-04-29T07:50:38.281Z,54.64
2019-04-29T07:53:07.896Z,54.31
2019-04-29T07:55:37.290Z,53.26
2019-04-29T07:58:06.631Z,52.96
2019-04-29T08:00:36.512Z,51.10
2019-04-29T08:03:08.024Z,50.12
2019-04-29T08:05:37.512Z,47.86
2019-04-29T08:08:25.119Z,46.13
2019-04-29T08:10:56.702Z,45.80
2019-04-29T08:13:27.073Z,45.50
2019-04-29T08:15:56.418Z,45.56
2019-04-29T08:18:25.792Z,46.90
2019-04-29T08:20:55.154Z,48.15
2019-04-29T08:23:24.626Z,49.22
2019-04-29T08:25:57.679Z,51.47
2019-04-29T08:28:24.994Z,51.24
2019-04-29T08:30:54.466Z,51.02
2019-04-29T08:33:23.773Z,51.58
2019-04-29T08:35:53.173Z,52.02
2019-04-29T08:38:22.505Z,52.10
2019-04-29T08:40:51.900Z,53.17
2019-04-29T08:43:31.827Z,52.59
2019-04-29T08:46:12.042Z,52.44
2019-04-29T08:48:41.430Z,52.42
2019-04-29T08:51:10.789Z,52.37
2019-04-29T08:53:40.092Z,51.51
2019-04-29T08:56:10.171Z,49.73
2019-04-29T08:58:44.402Z,48.79
2019-04-29T09:01:11.733Z,48.18
2019-04-29T09:03:41.295Z,48.24
2019-04-29T09:06:10.897Z,49.17
2019-04-29T09:08:54.033Z,49.01
2019-04-29T09:11:13.025Z,50.97
2019-04-29T09:13:42.471Z,49.17
2019-04-29T09:16:11.846Z,49.31
2019-04-29T09:18:41.278Z,49.62
2019-04-29T09:21:10.644Z,50.30
2019-04-29T09:23:40.023Z,49.56
2019-04-29T09:26:16.874Z,48.58
2019-04-29T09:28:49.410Z,47.70
2019-04-29T09:31:18.100Z,46.52
2019-04-29T09:33:49.104Z,46.51
2019-04-29T09:36:18.667Z,47.30
2019-04-29T09:38:48.054Z,46.95
2019-04-29T09:41:26.040Z,45.98
2019-04-29T09:44:05.779Z,45.77
2019-04-29T09:46:36.854Z,46.60
2019-04-29T09:49:06.233Z,47.05
2019-04-29T09:51:35.603Z,46.67
2019-04-29T09:54:05.003Z,46.21
2019-04-29T09:56:34.947Z,47.18
2019-04-29T09:59:24.547Z,47.13
2019-04-29T10:02:04.652Z,47.07
2019-04-29T10:04:56.469Z,45.39
2019-04-29T10:07:18.707Z,45.16
2019-04-29T10:09:57.062Z,46.84
2019-04-29T10:12:19.436Z,48.72
2019-04-29T10:14:48.841Z,48.66
2019-04-29T10:17:19.939Z,49.55
2019-04-29T10:20:08.131Z,49.45
2019-04-29T10:22:37.860Z,49.07
2019-04-29T10:25:08.007Z,49.80
2019-04-29T10:27:37.482Z,49.32
2019-04-29T10:30:10.078Z,49.08
2019-04-29T10:32:42.411Z,49.05
2019-04-29T10:35:10.870Z,49.32
2019-04-29T10:37:40.397Z,49.98
2019-04-29T10:40:28.160Z,49.89
2019-04-29T10:43:17.131Z,49.02
2019-04-29T10:45:48.443Z,47.71
2019-04-29T10:48:34.890Z,47.15
2019-04-29T10:51:05.798Z,46.59
2019-04-29T10:53:35.371Z,46.23
2019-04-29T10:56:06.994Z,46.35
2019-04-29T10:58:36.629Z,45.02
2019-04-29T11:01:29.182Z,44.65
2019-04-29T11:04:00.952Z,44.19
2019-04-29T11:06:31.467Z,44.25
2019-04-29T11:09:14.392Z,44.29
2019-04-29T11:11:45.590Z,44.29
2019-04-29T11:14:14.966Z,43.64
2019-04-29T11:16:46.966Z,44.46
2019-04-29T11:19:15.807Z,44.31
2019-04-29T11:21:45.642Z,43.98
2019-04-29T11:24:19.411Z,45.27
2019-04-29T11:26:53.181Z,44.94
2019-04-29T11:29:27.400Z,44.78
2019-04-29T11:31:55.917Z,44.71
2019-04-29T11:34:27.688Z,44.17
2019-04-29T11:36:57.133Z,43.62
2019-04-29T11:39:26.908Z,42.80
2019-04-29T11:41:59.798Z,43.02
2019-04-29T11:44:28.049Z,42.48
2019-04-29T11:46:57.654Z,41.83
2019-04-29T11:49:28.652Z,41.51
2019-04-29T11:52:09.176Z,40.94
2019-04-29T11:54:29.398Z,41.97
2019-04-29T11:56:58.934Z,41.92
2019-04-29T11:59:30.154Z,40.87
2019-04-29T12:02:01.372Z,41.97
2019-04-29T12:04:35.188Z,41.98
2019-04-29T12:07:05.028Z,42.59
2019-04-29T12:09:35.225Z,42.38
2019-04-29T12:12:07.920Z,42.74
2019-04-29T12:14:44.903Z,43.40
2019-04-29T12:17:24.622Z,43.46
2019-04-29T12:19:55.587Z,43.98
2019-04-29T12:22:30.396Z,44.32
2019-04-29T12:24:56.099Z,44.53
2019-04-29T12:27:25.569Z,44.59
2019-04-29T12:29:59.166Z,44.45
2019-04-29T12:32:27.800Z,44.36
2019-04-29T12:35:16.621Z,44.14
2019-04-29T12:38:00.788Z,44.44
2019-04-29T12:40:45.552Z,45.00
2019-04-29T12:43:28.169Z,45.56
2019-04-29T12:46:01.996Z,45.33
2019-04-29T12:48:31.451Z,45.32
2019-04-29T12:51:01.104Z,45.51
2019-04-29T12:53:30.523Z,45.47
2019-04-29T12:55:59.892Z,45.44
2019-04-29T12:58:29.265Z,45.58
2019-04-29T13:01:12.157Z,45.55
2019-04-29T13:03:48.969Z,45.58
2019-04-29T13:06:24.017Z,45.72
2019-04-29T13:09:01.500Z,45.40
2019-04-29T13:11:37.630Z,45.22
2019-04-29T13:14:01.930Z,45.56
2019-04-29T13:16:45.641Z,45.99
2019-04-29T13:19:29.841Z,45.97
2019-04-29T13:21:56.458Z,46.25
2019-04-29T13:24:26.231Z,46.49
2019-04-29T13:26:55.926Z,46.70
2019-04-29T13:29:27.753Z,46.62
2019-04-29T13:31:56.371Z,47.23
2019-04-29T13:34:33.042Z,47.21
2019-04-29T13:37:07.278Z,47.32
2019-04-29T13:39:39.018Z,47.42
2019-04-29T13:42:03.002Z,47.76
2019-04-29T13:44:32.176Z,48.13
2019-04-29T13:47:28.364Z,48.98
2019-04-29T13:49:54.105Z,49.02
2019-04-29T13:52:23.468Z,49.31
2019-04-29T13:54:52.790Z,48.84
2019-04-29T13:57:22.128Z,48.28
2019-04-29T14:00:02.589Z,47.97
2019-04-29T14:02:36.746Z,47.99
2019-04-29T14:05:08.737Z,48.63
2019-04-29T14:07:39.625Z,48.29
2019-04-29T14:10:14.808Z,48.30
2019-04-29T14:12:48.329Z,47.92
2019-04-29T14:15:14.384Z,48.11
2019-04-29T14:17:43.709Z,47.96
2019-04-29T14:20:15.788Z,48.63
2019-04-29T14:22:44.158Z,48.67
2019-04-29T14:25:13.987Z,48.47
2019-04-29T14:27:43.368Z,48.60
2019-04-29T14:30:16.067Z,49.18
2019-04-29T14:32:49.533Z,49.71
2019-04-29T14:35:27.678Z,50.04
2019-04-29T14:38:04.321Z,50.12
2019-04-29T14:40:28.230Z,50.44
2019-04-29T14:43:27.056Z,50.82
2019-04-29T14:45:47.983Z,51.25
2019-04-29T14:48:21.370Z,52.80
2019-04-29T14:50:54.042Z,53.34
2019-04-29T14:53:24.132Z,54.97
2019-04-29T14:55:53.364Z,56.58
2019-04-29T14:58:22.733Z,57.22
2019-04-29T15:00:53.838Z,57.78
2019-04-29T15:03:30.668Z,59.49
2019-04-29T15:06:00.067Z,59.88
2019-04-29T15:08:32.067Z,61.17
2019-04-29T15:11:04.213Z,62.25
2019-04-29T15:13:32.571Z,61.34
2019-04-29T15:16:05.179Z,61.61
2019-04-29T15:18:49.598Z,62.85
2019-04-29T15:21:31.099Z,63.82
2019-04-29T15:23:49.004Z,63.78
2019-04-29T15:26:20.441Z,66.68
2019-04-29T15:28:52.611Z,65.03
2019-04-29T15:31:23.451Z,65.15
2019-04-29T15:33:53.176Z,65.23
2019-04-29T15:36:22.540Z,67.29
2019-04-29T15:39:07.698Z,69.04
2019-04-29T15:41:29.727Z,69.51
2019-04-29T15:44:06.469Z,70.14
2019-04-29T15:46:25.266Z,71.83
2019-04-29T15:48:54.658Z,72.49
2019-04-29T15:51:24.014Z,73.65
2019-04-29T15:53:54.492Z,74.79
2019-04-29T15:56:28.731Z,75.61
2019-04-29T15:58:59.610Z,75.33
2019-04-29T16:01:27.930Z,75.61
2019-04-29T16:03:59.248Z,75.53
2019-04-29T16:06:33.838Z,76.10
2019-04-29T16:09:11.904Z,75.99
2019-04-29T16:11:58.944Z,76.60
2019-04-29T16:14:28.391Z,78.02
2019-04-29T16:16:57.700Z,77.63
2019-04-29T16:19:27.092Z,75.94
2019-04-29T16:21:56.515Z,77.06
2019-04-29T16:24:27.299Z,77.48
2019-04-29T16:27:01.128Z,78.03
2019-04-29T16:29:28.074Z,78.75
2019-04-29T16:32:02.359Z,79.12
2019-04-29T16:34:28.634Z,79.62
2019-04-29T16:36:58.910Z,78.48
2019-04-29T16:39:28.580Z,79.10
2019-04-29T16:42:15.845Z,79.50
2019-04-29T16:44:45.511Z,79.94
2019-04-29T16:47:15.681Z,78.56
2019-04-29T16:49:45.328Z,79.53
2019-04-29T16:52:14.712Z,79.85
2019-04-29T16:54:44.185Z,79.52
2019-04-29T16:57:13.575Z,79.46
2019-04-29T16:59:43.400Z,79.35
2019-04-29T17:02:19.135Z,79.93
2019-04-29T17:04:44.229Z,80.61
2019-04-29T17:07:15.158Z,80.71
2019-04-29T17:09:52.247Z,80.08
2019-04-29T17:12:21.994Z,80.12
2019-04-29T17:15:03.757Z,80.21
2019-04-29T17:17:29.195Z,80.58
2019-04-29T17:19:55.163Z,80.22
2019-04-29T17:22:27.184Z,80.22
2019-04-29T17:24:55.992Z,79.49
2019-04-29T17:27:34.933Z,79.64
2019-04-29T17:30:11.244Z,80.81
2019-04-29T17:32:51.972Z,81.48
2019-04-29T17:35:23.006Z,81.27
2019-04-29T17:37:52.582Z,81.34
2019-04-29T17:40:23.641Z,81.72
2019-04-29T17:43:00.762Z,80.80
2019-04-29T17:45:32.723Z,80.86
2019-04-29T17:48:03.706Z,80.79
2019-04-29T17:50:49.531Z,80.63
2019-04-29T17:53:24.972Z,80.98
2019-04-29T17:56:02.254Z,81.34
2019-04-29T17:58:33.260Z,81.85
2019-04-29T18:01:12.959Z,81.39
2019-04-29T18:03:46.788Z,81.22
2019-04-29T18:06:24.147Z,81.25
2019-04-29T18:09:05.600Z,81.53
2019-04-29T18:11:48.949Z,81.47
2019-04-29T18:14:07.080Z,81.14
2019-04-29T18:16:39.509Z,81.13
2019-04-29T18:19:10.849Z,81.91
2019-04-29T18:21:47.601Z,81.09
2019-04-29T18:24:21.201Z,80.93
2019-04-29T18:26:52.889Z,81.14
2019-04-29T18:29:22.482Z,81.10
2019-04-29T18:31:51.986Z,81.43
2019-04-29T18:34:21.358Z,81.39
2019-04-29T18:36:54.561Z,81.70
2019-04-29T18:39:25.051Z,81.88
2019-04-29T18:41:54.789Z,82.06
2019-04-29T18:44:25.804Z,81.99
2019-04-29T18:46:57.230Z,81.94
2019-04-29T18:49:26.396Z,81.83
2019-04-29T18:51:57.895Z,81.98
2019-04-29T18:54:27.060Z,81.87
2019-04-29T18:56:56.843Z,82.37
2019-04-29T18:59:33.261Z,82.74
2019-04-29T19:02:00.951Z,82.50
2019-04-29T19:04:31.633Z,82.15
2019-04-29T19:07:02.418Z,82.49
2019-04-29T19:09:35.957Z,82.45
2019-04-29T19:12:05.617Z,82.47
2019-04-29T19:14:35.406Z,82.01
2019-04-29T19:17:05.152Z,82.30
2019-04-29T19:19:35.807Z,82.24
2019-04-29T19:22:09.417Z,81.98
2019-04-29T19:24:38.159Z,82.20
2019-04-29T19:27:09.952Z,81.97
2019-04-29T19:29:43.176Z,81.76
2019-04-29T19:32:10.496Z,81.37
2019-04-29T19:34:43.313Z,81.57
2019-04-29T19:37:11.454Z,81.88
2019-04-29T19:39:41.018Z,81.88
2019-04-29T19:42:10.552Z,81.72
2019-04-29T19:44:39.962Z,81.49
2019-04-29T19:47:10.985Z,81.28
2019-04-29T19:49:44.637Z,81.29
2019-04-29T19:52:11.932Z,80.94
2019-04-29T19:54:42.980Z,80.95
2019-04-29T19:57:12.358Z,80.85
2019-04-29T19:59:50.413Z,80.89
2019-04-29T20:02:13.446Z,81.11
2019-04-29T20:04:44.926Z,81.02
2019-04-29T20:07:17.445Z,80.59
2019-04-29T20:09:48.296Z,80.43
2019-04-29T20:12:17.956Z,79.84
2019-04-29T20:14:48.087Z,79.08
2019-04-29T20:17:19.818Z,79.06
2019-04-29T20:20:00.653Z,79.30
2019-04-29T20:22:30.681Z,79.16
2019-04-29T20:25:00.222Z,79.05
2019-04-29T20:27:32.362Z,78.34
2019-04-29T20:30:01.655Z,78.35
2019-04-29T20:32:32.099Z,78.59
2019-04-29T20:35:06.910Z,78.65
2019-04-29T20:37:32.714Z,78.82
2019-04-29T20:40:02.534Z,78.21
2019-04-29T20:42:32.221Z,78.03
2019-04-29T20:45:01.845Z,78.34
2019-04-29T20:47:37.921Z,78.66
2019-04-29T20:50:04.043Z,79.12
2019-04-29T20:52:37.904Z,79.48
2019-04-29T20:55:09.322Z,79.98
2019-04-29T20:57:39.301Z,79.97
2019-04-29T21:00:09.722Z,80.10
2019-04-29T21:02:39.402Z,80.89
2019-04-29T21:05:19.890Z,81.64
2019-04-29T21:07:41.562Z,82.93
2019-04-29T21:10:11.411Z,83.65
2019-04-29T21:12:45.869Z,84.24
2019-04-29T21:15:32.421Z,84.37
2019-04-29T21:18:01.974Z,84.87
2019-04-29T21:20:31.523Z,84.85
2019-04-29T21:23:01.160Z,84.82
2019-04-29T21:25:30.865Z,85.01
2019-04-29T21:28:02.204Z,85.10
2019-04-29T21:30:35.471Z,85.04
2019-04-29T21:33:02.526Z,84.58
2019-04-29T21:35:49.540Z,84.27
2019-04-29T21:38:35.334Z,84.01
2019-04-29T21:41:06.529Z,84.34
2019-04-29T21:43:37.535Z,84.59
2019-04-29T21:46:09.048Z,84.74
2019-04-29T21:48:38.530Z,85.37
2019-04-29T21:51:11.131Z,85.90
2019-04-29T21:53:40.412Z,86.02
2019-04-29T21:56:09.932Z,85.97
2019-04-29T21:58:39.286Z,86.01
2019-04-29T22:01:08.785Z,86.34
2019-04-29T22:03:38.244Z,86.22
2019-04-29T22:06:07.691Z,86.49
2019-04-29T22:08:37.123Z,86.29
2019-04-29T22:11:07.004Z,86.38
2019-04-29T22:13:39.000Z,86.47
2019-04-29T22:16:11.428Z,86.42
2019-04-29T22:18:39.478Z,86.68
2019-04-29T22:21:10.239Z,86.57
2019-04-29T22:23:44.337Z,86.59
2019-04-29T22:26:10.702Z,86.52
2019-04-29T22:28:40.078Z,86.60
2019-04-29T22:31:09.358Z,86.61
2019-04-29T22:33:38.792Z,86.66
2019-04-29T22:36:10.270Z,86.55
2019-04-29T22:38:43.646Z,86.39
2019-04-29T22:41:20.230Z,86.02
2019-04-29T22:43:52.437Z,86.14
2019-04-29T22:46:21.986Z,85.80
2019-04-29T22:48:51.406Z,86.01
2019-04-29T22:51:20.821Z,85.98
2019-04-29T22:53:50.193Z,86.07
2019-04-29T22:56:19.557Z,86.30
2019-04-29T22:58:48.891Z,86.35
2019-04-29T23:01:18.272Z,86.25
2019-04-29T23:03:47.621Z,86.14
2019-04-29T23:06:17.156Z,86.30
2019-04-29T23:08:46.443Z,86.27
2019-04-29T23:11:15.808Z,86.44
2019-04-29T23:13:46.180Z,86.12
2019-04-29T23:16:16.208Z,85.91
2019-04-29T23:18:45.930Z,85.86
2019-04-29T23:21:37.477Z,85.73
2019-04-29T23:24:18.554Z,85.90
2019-04-29T23:26:47.920Z,85.98
2019-04-29T23:29:17.256Z,85.83
2019-04-29T23:31:46.666Z,86.12
2019-04-29T23:34:15.967Z,86.06
2019-04-29T23:36:48.884Z,85.91
2019-04-29T23:39:16.496Z,85.82
2019-04-29T23:41:45.808Z,86.20
2019-04-29T23:44:15.181Z,86.36
2019-04-29T23:46:47.369Z,86.39
2019-04-29T23:49:15.646Z,86.42
2019-04-29T23:51:46.460Z,86.28
2019-04-29T23:54:15.857Z,86.23
2019-04-29T23:56:49.811Z,86.45
2019-04-29T23:59:25.078Z,86.44
